createdAt,value
2018-05-31T00:00:18.466Z,51.95
2018-05-31T00:02:46.199Z,52.36
2018-05-31T00:05:13.787Z,51.79
2018-05-31T00:07:41.437Z,51.90
2018-05-31T00:10:09.076Z,52.32
2018-05-31T00:12:36.737Z,51.38
2018-05-31T00:15:04.888Z,50.68
2018-05-31T00:17:32.692Z,50.59
2018-05-31T00:20:00.334Z,50.53
2018-05-31T00:22:27.986Z,50.64
2018-05-31T00:24:55.737Z,50.36
2018-05-31T00:27:23.336Z,50.07
2018-05-31T00:29:51.275Z,48.96
2018-05-31T00:32:19.032Z,49.41
2018-05-31T00:34:46.621Z,49.05
2018-05-31T00:37:14.254Z,48.55
2018-05-31T00:39:41.949Z,47.48
2018-05-31T00:42:10.303Z,47.41
2018-05-31T00:44:37.918Z,47.93
2018-05-31T00:47:05.650Z,48.23
2018-05-31T00:49:33.306Z,48.17
2018-05-31T00:52:00.910Z,47.82
2018-05-31T00:54:28.563Z,48.18
2018-05-31T00:56:56.161Z,48.64
2018-05-31T00:59:23.828Z,49.19
2018-05-31T01:01:51.601Z,49.41
2018-05-31T01:04:19.265Z,48.92
2018-05-31T01:06:46.869Z,49.05
2018-05-31T01:09:14.647Z,49.06
2018-05-31T01:11:42.804Z,50.69
2018-05-31T01:14:10.517Z,49.97
2018-05-31T01:16:38.244Z,50.13
2018-05-31T01:19:06.450Z,50.03
2018-05-31T01:21:34.028Z,49.80
2018-05-31T01:24:01.671Z,50.63
2018-05-31T01:26:29.327Z,50.34
2018-05-31T01:28:57.001Z,50.46
2018-05-31T01:31:24.700Z,50.98
2018-05-31T01:33:52.284Z,51.31
2018-05-31T01:36:19.954Z,51.08
2018-05-31T01:38:47.656Z,50.46
2018-05-31T01:41:15.252Z,50.14
2018-05-31T01:43:42.939Z,50.40
2018-05-31T01:46:10.676Z,50.28
2018-05-31T01:48:38.325Z,49.26
2018-05-31T01:51:05.915Z,49.28
2018-05-31T01:53:33.639Z,48.88
2018-05-31T01:56:01.240Z,50.17
2018-05-31T01:58:28.833Z,49.30
2018-05-31T02:00:56.485Z,49.06
2018-05-31T02:03:24.142Z,50.20
2018-05-31T02:05:54.675Z,50.87
2018-05-31T02:08:22.388Z,51.22
2018-05-31T02:10:50.000Z,51.87
2018-05-31T02:13:17.618Z,52.72
2018-05-31T02:15:45.370Z,51.48
2018-05-31T02:18:12.995Z,51.39
2018-05-31T02:20:40.654Z,52.23
2018-05-31T02:23:08.387Z,52.62
2018-05-31T02:25:36.005Z,52.74
2018-05-31T02:28:03.634Z,52.28
2018-05-31T02:30:31.389Z,52.26
2018-05-31T02:32:59.088Z,52.27
2018-05-31T02:35:26.763Z,52.24
2018-05-31T02:37:54.415Z,52.70
2018-05-31T02:40:22.071Z,51.75
2018-05-31T02:42:49.661Z,52.06
2018-05-31T02:45:17.373Z,52.41
2018-05-31T02:47:45.025Z,52.42
2018-05-31T02:50:12.613Z,52.79
2018-05-31T02:52:40.559Z,51.76
2018-05-31T02:55:08.142Z,50.35
2018-05-31T02:57:35.789Z,51.16
2018-05-31T03:00:03.538Z,51.52
2018-05-31T03:02:31.122Z,51.57
2018-05-31T03:04:58.711Z,53.01
2018-05-31T03:07:26.813Z,52.01
2018-05-31T03:09:54.444Z,52.46
2018-05-31T03:12:22.619Z,53.14
2018-05-31T03:14:50.339Z,53.71
2018-05-31T03:17:17.955Z,53.67
2018-05-31T03:19:45.546Z,53.96
2018-05-31T03:22:13.332Z,53.67
2018-05-31T03:24:40.992Z,53.84
2018-05-31T03:27:08.583Z,53.89
2018-05-31T03:29:36.321Z,54.07
2018-05-31T03:32:03.979Z,53.64
2018-05-31T03:34:32.080Z,54.07
2018-05-31T03:36:59.724Z,54.45
2018-05-31T03:39:27.405Z,54.91
2018-05-31T03:41:54.992Z,55.05
2018-05-31T03:44:22.792Z,54.57
2018-05-31T03:46:50.402Z,55.79
2018-05-31T03:49:18.020Z,55.39
2018-05-31T03:51:45.693Z,55.90
2018-05-31T03:54:13.288Z,56.69
2018-05-31T03:56:40.877Z,54.83
2018-05-31T03:59:08.539Z,55.97
2018-05-31T04:01:36.238Z,55.28
2018-05-31T04:04:03.847Z,55.25
2018-05-31T04:06:31.560Z,54.37
2018-05-31T04:08:59.156Z,52.93
2018-05-31T04:11:27.461Z,56.63
2018-05-31T04:13:55.203Z,55.44
2018-05-31T04:16:23.001Z,55.98
2018-05-31T04:18:50.668Z,57.05
2018-05-31T04:21:18.389Z,56.83
2018-05-31T04:23:45.986Z,56.28
2018-05-31T04:26:13.595Z,56.85
2018-05-31T04:28:41.332Z,54.33
2018-05-31T04:31:08.991Z,54.12
2018-05-31T04:33:36.585Z,54.56
2018-05-31T04:36:05.460Z,52.91
2018-05-31T04:38:33.062Z,53.05
2018-05-31T04:41:00.752Z,54.17
2018-05-31T04:43:28.493Z,52.93
2018-05-31T04:45:56.199Z,53.01
2018-05-31T04:48:23.860Z,52.14
2018-05-31T04:50:51.630Z,54.07
2018-05-31T04:53:19.252Z,53.87
2018-05-31T04:55:46.921Z,53.48
2018-05-31T04:58:14.609Z,53.77
2018-05-31T05:00:42.204Z,52.74
2018-05-31T05:03:09.868Z,52.48
2018-05-31T05:05:37.608Z,51.47
2018-05-31T05:08:05.606Z,53.25
2018-05-31T05:10:33.291Z,52.30
2018-05-31T05:13:00.951Z,50.55
2018-05-31T05:15:28.552Z,49.94
2018-05-31T05:17:56.151Z,47.41
2018-05-31T05:20:24.749Z,48.42
2018-05-31T05:22:52.413Z,49.39
2018-05-31T05:25:20.062Z,47.30
2018-05-31T05:27:47.848Z,47.07
2018-05-31T05:30:15.444Z,47.52
2018-05-31T05:32:43.084Z,47.34
2018-05-31T05:35:10.856Z,46.47
2018-05-31T05:37:38.467Z,46.76
2018-05-31T05:40:06.103Z,46.61
2018-05-31T05:42:33.761Z,45.88
2018-05-31T05:45:01.369Z,41.47
2018-05-31T05:47:28.995Z,44.71
2018-05-31T05:49:56.832Z,48.80
2018-05-31T05:52:24.468Z,47.93
2018-05-31T05:54:52.088Z,45.77
2018-05-31T05:57:19.741Z,44.84
2018-05-31T05:59:47.344Z,44.59
2018-05-31T06:02:14.951Z,42.89
2018-05-31T06:04:42.587Z,43.94
2018-05-31T06:07:10.257Z,41.23
2018-05-31T06:09:37.922Z,41.79
2018-05-31T06:12:06.392Z,43.27
2018-05-31T06:14:34.032Z,40.22
2018-05-31T06:17:01.723Z,42.71
2018-05-31T06:19:29.452Z,41.68
2018-05-31T06:21:57.148Z,43.20
2018-05-31T06:24:24.746Z,39.60
2018-05-31T06:26:52.412Z,45.44
2018-05-31T06:29:20.070Z,42.67
2018-05-31T06:31:47.686Z,42.09
2018-05-31T06:34:15.327Z,39.92
2018-05-31T06:36:42.952Z,38.79
2018-05-31T06:39:10.589Z,39.79
2018-05-31T06:41:38.276Z,41.72
2018-05-31T06:44:05.927Z,43.69
2018-05-31T06:46:33.523Z,43.61
2018-05-31T06:49:01.225Z,43.43
2018-05-31T06:51:28.819Z,41.21
2018-05-31T06:53:56.520Z,40.93
2018-05-31T06:56:24.155Z,42.20
2018-05-31T06:58:51.881Z,38.21
2018-05-31T07:01:19.495Z,40.19
2018-05-31T07:03:47.191Z,38.39
2018-05-31T07:06:14.776Z,39.72
2018-05-31T07:08:42.431Z,40.26
2018-05-31T07:11:10.122Z,36.66
2018-05-31T07:13:37.708Z,38.52
2018-05-31T07:16:05.299Z,34.81
2018-05-31T07:18:32.935Z,35.71
2018-05-31T07:21:00.571Z,37.14
2018-05-31T07:23:28.179Z,38.59
2018-05-31T07:25:55.935Z,39.08
2018-05-31T07:28:23.605Z,34.44
2018-05-31T07:30:51.228Z,36.25
2018-05-31T07:33:18.868Z,37.27
2018-05-31T07:35:46.511Z,36.05
2018-05-31T07:38:14.324Z,35.90
2018-05-31T07:40:42.164Z,35.96
2018-05-31T07:43:09.796Z,33.18
2018-05-31T07:45:37.459Z,33.77
2018-05-31T07:48:05.146Z,30.96
2018-05-31T07:50:32.739Z,34.73
2018-05-31T07:53:00.358Z,33.45
2018-05-31T07:55:28.004Z,33.07
2018-05-31T07:57:55.655Z,32.87
2018-05-31T08:00:23.260Z,29.36
2018-05-31T08:02:50.980Z,32.44
2018-05-31T08:05:18.565Z,31.16
2018-05-31T08:07:46.136Z,26.70
2018-05-31T08:10:14.715Z,29.45
2018-05-31T08:12:42.301Z,27.37
2018-05-31T08:15:09.933Z,25.90
2018-05-31T08:17:37.608Z,24.27
2018-05-31T08:20:05.238Z,25.39
2018-05-31T08:22:32.830Z,25.59
2018-05-31T08:25:00.476Z,22.57
2018-05-31T08:27:28.119Z,21.36
2018-05-31T08:29:55.764Z,21.60
2018-05-31T08:32:23.500Z,23.72
2018-05-31T08:34:51.080Z,22.25
2018-05-31T08:37:18.696Z,23.95
2018-05-31T08:39:46.418Z,19.87
2018-05-31T08:42:14.064Z,19.64
2018-05-31T08:44:41.695Z,22.90
2018-05-31T08:47:09.361Z,21.74
2018-05-31T08:49:36.980Z,21.45
2018-05-31T08:52:04.594Z,22.08
2018-05-31T08:54:32.335Z,21.84
2018-05-31T08:56:59.928Z,19.77
2018-05-31T08:59:27.508Z,18.73
2018-05-31T09:01:55.233Z,18.63
2018-05-31T09:04:22.799Z,19.41
2018-05-31T09:06:50.401Z,20.75
2018-05-31T09:09:18.047Z,18.83
2018-05-31T09:11:45.694Z,19.22
2018-05-31T09:14:13.349Z,22.23
2018-05-31T09:16:41.002Z,19.05
2018-05-31T09:19:08.668Z,21.61
2018-05-31T09:21:36.256Z,20.99
2018-05-31T09:24:04.118Z,20.11
2018-05-31T09:26:31.748Z,18.71
2018-05-31T09:28:59.329Z,17.81
2018-05-31T09:31:27.058Z,18.85
2018-05-31T09:33:54.707Z,20.49
2018-05-31T09:36:22.303Z,17.40
2018-05-31T09:38:50.004Z,18.58
2018-05-31T09:41:18.736Z,17.28
2018-05-31T09:43:47.222Z,17.40
2018-05-31T09:46:15.717Z,18.22
2018-05-31T09:48:44.086Z,19.49
2018-05-31T09:51:11.696Z,17.05
2018-05-31T09:53:39.367Z,16.77
2018-05-31T09:56:07.016Z,21.08
2018-05-31T09:58:34.619Z,18.58
2018-05-31T10:01:02.255Z,19.38
2018-05-31T10:03:29.889Z,19.68
2018-05-31T10:05:57.468Z,16.44
2018-05-31T10:08:25.196Z,17.55
2018-05-31T10:10:52.768Z,20.84
2018-05-31T10:13:20.345Z,21.44
2018-05-31T10:15:48.092Z,19.71
2018-05-31T10:18:15.686Z,21.35
2018-05-31T10:20:43.348Z,19.09
2018-05-31T10:23:10.980Z,17.36
2018-05-31T10:25:38.642Z,18.45
2018-05-31T10:28:06.228Z,18.62
2018-05-31T10:30:33.947Z,16.74
2018-05-31T10:33:01.542Z,20.81
2018-05-31T10:35:29.169Z,19.23
2018-05-31T10:37:56.796Z,17.24
2018-05-31T10:40:24.425Z,19.77
2018-05-31T10:42:52.000Z,18.25
2018-05-31T10:45:20.610Z,18.84
2018-05-31T10:47:48.875Z,18.89
2018-05-31T10:50:16.472Z,19.18
2018-05-31T10:52:44.116Z,17.02
2018-05-31T10:55:11.693Z,18.06
2018-05-31T10:57:39.306Z,18.79
2018-05-31T11:00:07.064Z,20.05
2018-05-31T11:02:34.649Z,20.14
2018-05-31T11:05:02.296Z,19.24
2018-05-31T11:07:29.925Z,18.13
2018-05-31T11:09:57.643Z,18.36
2018-05-31T11:12:25.281Z,18.56
2018-05-31T11:14:52.983Z,17.58
2018-05-31T11:17:20.569Z,22.12
2018-05-31T11:19:48.167Z,20.05
2018-05-31T11:22:15.824Z,18.02
2018-05-31T11:24:43.431Z,17.67
2018-05-31T11:27:11.039Z,19.24
2018-05-31T11:29:38.817Z,20.80
2018-05-31T11:32:06.460Z,19.56
2018-05-31T11:34:34.054Z,18.02
2018-05-31T11:37:01.777Z,19.50
2018-05-31T11:39:29.432Z,20.82
2018-05-31T11:41:57.077Z,20.61
2018-05-31T11:44:24.864Z,18.68
2018-05-31T11:46:52.494Z,16.83
2018-05-31T11:49:20.154Z,18.80
2018-05-31T11:51:47.920Z,19.32
2018-05-31T11:54:16.360Z,17.49
2018-05-31T11:56:44.006Z,17.05
2018-05-31T11:59:11.659Z,17.17
2018-05-31T12:01:39.253Z,18.08
2018-05-31T12:04:06.851Z,19.93
2018-05-31T12:06:34.508Z,19.39
2018-05-31T12:09:02.152Z,19.89
2018-05-31T12:11:29.737Z,19.25
2018-05-31T12:13:57.385Z,18.56
2018-05-31T12:16:24.981Z,18.60
2018-05-31T12:18:53.261Z,20.16
2018-05-31T12:21:20.956Z,18.76
2018-05-31T12:23:48.581Z,17.42
2018-05-31T12:26:16.248Z,19.90
2018-05-31T12:28:43.902Z,16.61
2018-05-31T12:31:11.493Z,17.17
2018-05-31T12:33:39.103Z,21.14
2018-05-31T12:36:06.856Z,20.10
2018-05-31T12:38:34.446Z,19.84
2018-05-31T12:41:02.087Z,19.08
2018-05-31T12:43:30.533Z,18.49
2018-05-31T12:45:58.112Z,19.89
2018-05-31T12:48:25.724Z,17.62
2018-05-31T12:50:53.480Z,20.75
2018-05-31T12:53:21.060Z,21.54
2018-05-31T12:55:48.660Z,19.83
2018-05-31T12:58:16.345Z,18.26
2018-05-31T13:00:44.006Z,18.66
2018-05-31T13:03:11.653Z,18.48
2018-05-31T13:05:39.351Z,19.89
2018-05-31T13:08:06.958Z,19.06
2018-05-31T13:10:34.617Z,20.76
2018-05-31T13:13:02.762Z,20.62
2018-05-31T13:15:30.428Z,20.28
2018-05-31T13:17:58.075Z,19.42
2018-05-31T13:20:25.729Z,18.44
2018-05-31T13:22:53.376Z,18.56
2018-05-31T13:25:21.000Z,20.01
2018-05-31T13:27:49.272Z,21.48
2018-05-31T13:30:16.877Z,22.22
2018-05-31T13:32:44.480Z,20.55
2018-05-31T13:35:12.239Z,21.36
2018-05-31T13:37:39.877Z,21.44
2018-05-31T13:40:07.460Z,20.89
2018-05-31T13:42:35.162Z,20.71
2018-05-31T13:45:02.756Z,20.23
2018-05-31T13:47:31.004Z,19.45
2018-05-31T13:49:58.742Z,19.73
2018-05-31T13:52:26.358Z,19.97
2018-05-31T13:54:54.275Z,20.78
2018-05-31T13:57:21.899Z,20.84
2018-05-31T13:59:49.492Z,21.06
2018-05-31T14:02:17.072Z,20.89
2018-05-31T14:04:44.786Z,20.60
2018-05-31T14:07:12.391Z,21.83
2018-05-31T14:09:40.033Z,21.78
2018-05-31T14:12:07.680Z,21.78
2018-05-31T14:14:35.273Z,22.28
2018-05-31T14:17:02.879Z,21.07
2018-05-31T14:19:30.685Z,21.18
2018-05-31T14:21:58.359Z,21.00
2018-05-31T14:24:26.036Z,22.21
2018-05-31T14:26:53.761Z,21.37
2018-05-31T14:29:21.436Z,21.70
2018-05-31T14:31:49.032Z,22.47
2018-05-31T14:34:16.666Z,21.61
2018-05-31T14:36:44.304Z,22.17
2018-05-31T14:39:11.948Z,22.68
2018-05-31T14:41:39.588Z,22.72
2018-05-31T14:44:07.272Z,22.61
2018-05-31T14:46:34.878Z,21.91
2018-05-31T14:49:02.600Z,22.10
2018-05-31T14:51:30.245Z,22.12
2018-05-31T14:53:57.887Z,22.14
2018-05-31T14:56:26.278Z,22.37
2018-05-31T14:58:53.937Z,22.68
2018-05-31T15:01:21.525Z,22.96
2018-05-31T15:03:49.216Z,22.43
2018-05-31T15:06:16.852Z,23.01
2018-05-31T15:08:44.475Z,23.45
2018-05-31T15:11:12.209Z,23.08
2018-05-31T15:13:39.822Z,21.61
2018-05-31T15:16:07.416Z,22.47
2018-05-31T15:18:35.072Z,23.47
2018-05-31T15:21:02.723Z,24.06
2018-05-31T15:23:30.323Z,24.76
2018-05-31T15:25:57.991Z,24.10
2018-05-31T15:28:25.684Z,23.98
2018-05-31T15:30:53.361Z,24.27
2018-05-31T15:33:20.988Z,24.86
2018-05-31T15:35:48.573Z,24.87
2018-05-31T15:38:16.422Z,24.78
2018-05-31T15:40:44.164Z,25.63
2018-05-31T15:43:11.774Z,25.73
2018-05-31T15:45:39.365Z,25.83
2018-05-31T15:48:06.994Z,26.81
2018-05-31T15:50:34.636Z,26.44
2018-05-31T15:53:03.356Z,26.48
2018-05-31T15:55:31.080Z,26.74
2018-05-31T15:57:58.709Z,28.88
2018-05-31T16:00:26.430Z,27.00
2018-05-31T16:02:54.519Z,27.75
2018-05-31T16:05:22.144Z,27.47
2018-05-31T16:07:49.769Z,27.58
2018-05-31T16:10:17.430Z,27.78
2018-05-31T16:12:45.080Z,27.99
2018-05-31T16:15:12.699Z,27.85
2018-05-31T16:17:40.352Z,27.65
2018-05-31T16:20:07.987Z,27.81
2018-05-31T16:22:35.579Z,27.01
2018-05-31T16:25:03.320Z,27.50
2018-05-31T16:27:30.937Z,27.77
2018-05-31T16:29:58.525Z,28.03
2018-05-31T16:32:26.265Z,27.11
2018-05-31T16:34:53.846Z,27.35
2018-05-31T16:37:21.428Z,28.18
2018-05-31T16:39:49.064Z,28.29
2018-05-31T16:42:16.661Z,28.40
2018-05-31T16:44:44.325Z,28.87
2018-05-31T16:47:12.864Z,28.31
2018-05-31T16:49:40.448Z,28.98
2018-05-31T16:52:08.067Z,29.26
2018-05-31T16:54:35.787Z,29.50
2018-05-31T16:57:03.381Z,29.71
2018-05-31T16:59:30.965Z,30.48
2018-05-31T17:01:58.720Z,30.21
2018-05-31T17:04:26.421Z,30.19
2018-05-31T17:06:54.045Z,30.12
2018-05-31T17:09:21.719Z,30.35
2018-05-31T17:11:49.364Z,30.61
2018-05-31T17:14:17.201Z,31.14
2018-05-31T17:16:44.831Z,30.95
2018-05-31T17:19:12.444Z,30.85
2018-05-31T17:21:40.072Z,31.55
2018-05-31T17:24:07.820Z,31.55
2018-05-31T17:26:35.405Z,31.81
2018-05-31T17:29:03.003Z,32.00
2018-05-31T17:31:30.709Z,31.94
2018-05-31T17:33:58.353Z,32.36
2018-05-31T17:36:25.994Z,32.42
2018-05-31T17:38:53.760Z,32.89
2018-05-31T17:41:21.370Z,33.04
2018-05-31T17:43:48.956Z,32.78
2018-05-31T17:46:16.573Z,33.46
2018-05-31T17:48:44.168Z,34.19
2018-05-31T17:51:11.749Z,34.00
2018-05-31T17:53:39.499Z,34.27
2018-05-31T17:56:07.131Z,33.72
2018-05-31T17:58:34.781Z,33.60
2018-05-31T18:01:02.507Z,33.92
2018-05-31T18:03:30.160Z,33.45
2018-05-31T18:05:57.821Z,33.46
2018-05-31T18:08:25.464Z,33.97
2018-05-31T18:10:53.089Z,33.81
2018-05-31T18:13:20.720Z,34.10
2018-05-31T18:15:48.522Z,33.89
2018-05-31T18:18:16.143Z,34.43
2018-05-31T18:20:43.738Z,33.81
2018-05-31T18:23:11.513Z,33.96
2018-05-31T18:25:39.123Z,34.36
2018-05-31T18:28:06.874Z,34.50
2018-05-31T18:30:34.509Z,34.19
2018-05-31T18:33:02.155Z,34.16
2018-05-31T18:35:29.745Z,34.46
2018-05-31T18:37:58.300Z,34.48
2018-05-31T18:40:25.978Z,34.62
2018-05-31T18:42:53.579Z,34.78
2018-05-31T18:45:21.389Z,34.68
2018-05-31T18:47:48.977Z,34.60
2018-05-31T18:50:16.641Z,34.79
2018-05-31T18:52:44.427Z,35.16
2018-05-31T18:55:12.199Z,35.00
2018-05-31T18:57:39.919Z,34.96
2018-05-31T19:00:07.672Z,35.04
2018-05-31T19:02:35.313Z,35.42
2018-05-31T19:05:03.049Z,35.21
2018-05-31T19:07:30.735Z,35.50
2018-05-31T19:09:58.332Z,35.65
2018-05-31T19:12:31.433Z,38.14
2018-05-31T19:14:59.076Z,36.34
2018-05-31T19:17:26.762Z,36.29
2018-05-31T19:19:55.439Z,36.61
2018-05-31T19:22:23.091Z,36.55
2018-05-31T19:24:57.042Z,36.33
2018-05-31T19:27:24.690Z,35.26
2018-05-31T19:29:52.597Z,35.30
2018-05-31T19:32:20.253Z,34.64
2018-05-31T19:34:47.975Z,34.49
2018-05-31T19:37:15.656Z,33.16
2018-05-31T19:39:43.536Z,33.30
2018-05-31T19:42:16.783Z,33.50
2018-05-31T19:44:44.533Z,33.55
2018-05-31T19:47:12.173Z,33.58
2018-05-31T19:49:39.815Z,33.26
2018-05-31T19:52:13.609Z,32.67
2018-05-31T19:54:41.295Z,33.13
2018-05-31T19:57:08.919Z,33.08
2018-05-31T19:59:42.934Z,32.60
2018-05-31T20:02:16.098Z,32.46
2018-05-31T20:04:43.805Z,32.97
2018-05-31T20:07:11.384Z,32.90
2018-05-31T20:09:38.984Z,32.88
2018-05-31T20:12:06.641Z,32.60
2018-05-31T20:14:34.254Z,32.30
2018-05-31T20:17:01.937Z,32.93
2018-05-31T20:19:30.695Z,33.28
2018-05-31T20:21:58.339Z,33.37
2018-05-31T20:24:25.962Z,33.38
2018-05-31T20:26:53.691Z,33.93
2018-05-31T20:29:21.345Z,33.97
2018-05-31T20:31:49.052Z,34.01
2018-05-31T20:34:16.850Z,34.32
2018-05-31T20:36:44.499Z,34.12
2018-05-31T20:39:12.715Z,34.62
2018-05-31T20:41:40.359Z,34.65
2018-05-31T20:44:08.010Z,33.94
2018-05-31T20:46:35.590Z,33.91
2018-05-31T20:49:03.268Z,34.08
2018-05-31T20:51:31.736Z,33.40
2018-05-31T20:54:00.208Z,33.38
2018-05-31T20:56:28.012Z,33.12
2018-05-31T20:58:55.588Z,33.31
2018-05-31T21:01:23.328Z,32.75
2018-05-31T21:03:50.981Z,32.82
2018-05-31T21:06:18.573Z,32.99
2018-05-31T21:08:46.177Z,32.83
2018-05-31T21:11:14.946Z,33.23
2018-05-31T21:13:42.580Z,33.09
2018-05-31T21:16:10.152Z,33.21
2018-05-31T21:18:37.794Z,33.49
2018-05-31T21:21:05.400Z,33.17
2018-05-31T21:23:32.997Z,33.48
2018-05-31T21:26:00.964Z,33.11
2018-05-31T21:28:29.257Z,33.15
2018-05-31T21:30:56.912Z,33.20
2018-05-31T21:33:24.664Z,33.72
2018-05-31T21:35:52.304Z,33.52
2018-05-31T21:38:19.944Z,33.59
2018-05-31T21:40:47.670Z,33.89
2018-05-31T21:43:15.255Z,33.83
2018-05-31T21:45:42.828Z,33.83
2018-05-31T21:48:10.556Z,34.18
2018-05-31T21:50:38.196Z,33.93
2018-05-31T21:53:05.853Z,33.94
2018-05-31T21:55:33.572Z,34.11
2018-05-31T21:58:01.175Z,34.37
2018-05-31T22:00:46.667Z,35.18
2018-05-31T22:03:14.636Z,34.46
2018-05-31T22:05:42.307Z,34.54
2018-05-31T22:08:10.618Z,34.83
2018-05-31T22:10:38.208Z,34.85
2018-05-31T22:13:06.185Z,35.03
2018-05-31T22:15:33.956Z,35.23
2018-05-31T22:18:01.632Z,35.29
2018-05-31T22:20:29.207Z,35.70
2018-05-31T22:22:56.839Z,35.35
2018-05-31T22:25:24.510Z,35.13
2018-05-31T22:27:52.245Z,35.62
2018-05-31T22:30:19.906Z,35.47
2018-05-31T22:32:47.489Z,35.39
2018-05-31T22:35:15.141Z,35.55
2018-05-31T22:37:42.804Z,35.71
2018-05-31T22:40:10.400Z,35.48
2018-05-31T22:42:37.980Z,35.43
2018-05-31T22:45:05.809Z,36.00
2018-05-31T22:47:33.402Z,36.11
2018-05-31T22:50:01.773Z,35.86
2018-05-31T22:52:29.384Z,35.68
2018-05-31T22:54:56.983Z,35.83
2018-05-31T22:57:24.628Z,35.78
2018-05-31T22:59:52.409Z,36.00
2018-05-31T23:02:20.521Z,36.58
2018-05-31T23:04:48.259Z,35.93
2018-05-31T23:07:16.883Z,35.88
2018-05-31T23:09:44.472Z,36.29
2018-05-31T23:12:12.070Z,35.47
2018-05-31T23:14:39.717Z,35.83
2018-05-31T23:17:08.147Z,35.52
2018-05-31T23:19:35.719Z,35.43
2018-05-31T23:22:03.477Z,35.73
2018-05-31T23:24:31.105Z,35.68
2018-05-31T23:26:58.682Z,35.26
2018-05-31T23:29:26.365Z,35.29
2018-05-31T23:31:54.029Z,35.44
2018-05-31T23:34:21.613Z,34.98
2018-05-31T23:36:49.297Z,34.93
2018-05-31T23:39:16.877Z,35.00
2018-05-31T23:41:44.465Z,35.66
2018-05-31T23:44:12.100Z,35.53
2018-05-31T23:46:39.675Z,35.61
2018-05-31T23:49:07.273Z,36.40
2018-05-31T23:51:34.987Z,35.71
2018-05-31T23:54:02.632Z,35.90
2018-05-31T23:56:30.265Z,35.33
2018-05-31T23:58:57.992Z,35.46
